Terminal Aerodrome Forecast
Issued by NWS King Salmon, AK

Home | Current Version | Previous Version | Text Only | Print | Product List | Glossary On
Versions: 1 2 3 4 5 6 7 8 9 10 11 12 13 14 15 16 17 18 19 20 21 22 23 24 25 26 27 28 29 30 31 32 33 34 35 36 37 38 39 40 41 42
000
FTAK31 PANC 111605 AAC
TAFAKN
TAF AMD
PAKN 111605Z 1116/1212 14005KT 5SM -RA BR FEW004 SCT025 OVC035
      TEMPO 1116/1118 3SM BR OVC004
     FM112000 19008KT P6SM -SHRA BKN025
     FM120500 19010KT P6SM SCT025 BKN050=

USA.gov is the U.S. government's official web portal to all federal, state and local government web resources and services.